Time;durP1;ratioP1;P1;durP2;ratioP2;P2;SDS_P1;SDS_P2;PMS_P1;PMS_P2;Temp;Humidity;BMP_temperature;BMP_pressure;BME280_temperature;BME280_humidity;BME280_pressure;Samples;Min_cycle;Max_cycle;Signal;HPM_P1;HPM_P2
2022/03/08 00:01:50;;;;;;;19.27;10.23;;;;;;;;;;4966033;28;106367;-63
2022/03/08 00:04:16;;;;;;;20.73;9.98;;;;;;;;;;4956716;28;108815;-63
2022/03/08 00:06:43;;;;;;;20.40;9.82;;;;;;;;;;4969588;28;106388;-63
2022/03/08 00:09:09;;;;;;;24.27;10.73;;;;;;;;;;4964572;28;106940;-63
2022/03/08 00:11:36;;;;;;;20.92;10.30;;;;;;;;;;4969071;28;107336;-62
2022/03/08 00:14:02;;;;;;;19.45;9.65;;;;;;;;;;4969256;28;107459;-62
2022/03/08 00:16:29;;;;;;;18.40;10.13;;;;;;;;;;4965114;28;108249;-62
2022/03/08 00:18:55;;;;;;;20.55;10.13;;;;;;;;;;4964326;28;107243;-64
2022/03/08 00:21:22;;;;;;;22.70;10.15;;;;;;;;;;4959310;28;106435;-62
2022/03/08 00:23:48;;;;;;;23.08;10.20;;;;;;;;;;4975432;28;106744;-62
2022/03/08 00:26:15;;;;;;;22.42;11.18;;;;;;;;;;4947260;28;106999;-62
2022/03/08 00:28:42;;;;;;;23.85;11.05;;;;;;;;;;4941260;28;106837;-62
2022/03/08 00:31:08;;;;;;;24.35;11.23;;;;;;;;;;4963189;28;107963;-63
2022/03/08 00:33:35;;;;;;;22.50;10.43;;;;;;;;;;4973588;28;106520;-62
2022/03/08 00:36:02;;;;;;;21.70;10.43;;;;;;;;;;4971876;28;106785;-62
2022/03/08 00:38:29;;;;;;;19.50;10.02;;;;;;;;;;4949600;28;109061;-62
2022/03/08 00:40:55;;;;;;;20.20;9.82;;;;;;;;;;4951896;28;106900;-64
2022/03/08 00:43:21;;;;;;;18.85;9.82;;;;;;;;;;4950174;28;108696;-62
2022/03/08 00:45:48;;;;;;;21.05;9.57;;;;;;;;;;4948528;28;109009;-62
2022/03/08 00:48:14;;;;;;;20.80;9.50;;;;;;;;;;4969407;28;107005;-62
2022/03/08 00:50:41;;;;;;;21.15;10.35;;;;;;;;;;4963097;28;106626;-62
2022/03/08 00:53:07;;;;;;;19.65;9.30;;;;;;;;;;4981434;28;107260;-65
2022/03/08 00:55:34;;;;;;;23.00;10.43;;;;;;;;;;4946418;28;106872;-62
2022/03/08 00:58:03;;;;;;;16.98;9.93;;;;;;;;;;4974786;28;106974;-62
2022/03/08 01:00:31;;;;;;;23.92;10.80;;;;;;;;;;4963065;28;107181;-63
2022/03/08 01:02:59;;;;;;;19.50;9.50;;;;;;;;;;4946137;28;107570;-62
2022/03/08 01:05:26;;;;;;;19.60;10.52;;;;;;;;;;4957958;28;107285;-63
2022/03/08 01:07:52;;;;;;;20.85;9.98;;;;;;;;;;4976378;28;106279;-63
2022/03/08 01:10:19;;;;;;;19.92;9.48;;;;;;;;;;4940754;28;108559;-63
2022/03/08 01:12:47;;;;;;;20.15;9.98;;;;;;;;;;4950336;28;109302;-63
2022/03/08 01:15:16;;;;;;;20.75;10.43;;;;;;;;;;4972128;28;106572;-62
2022/03/08 01:17:43;;;;;;;28.65;10.38;;;;;;;;;;4965984;28;106255;-62
2022/03/08 01:20:10;;;;;;;21.25;10.60;;;;;;;;;;4951335;28;107484;-63
2022/03/08 01:22:37;;;;;;;22.58;10.48;;;;;;;;;;4945496;28;108437;-63
2022/03/08 01:25:04;;;;;;;20.77;10.10;;;;;;;;;;4967175;28;107297;-62
2022/03/08 01:27:30;;;;;;;20.73;10.30;;;;;;;;;;4971429;28;106994;-62
2022/03/08 01:29:57;;;;;;;20.23;9.73;;;;;;;;;;4956625;28;106435;-64
2022/03/08 01:32:23;;;;;;;19.70;10.02;;;;;;;;;;4966371;28;107541;-62
2022/03/08 01:34:50;;;;;;;21.40;10.55;;;;;;;;;;4976604;28;107007;-63
2022/03/08 01:37:16;;;;;;;20.30;10.23;;;;;;;;;;4948133;28;109028;-62
2022/03/08 01:39:43;;;;;;;21.73;11.13;;;;;;;;;;4952991;28;108034;-62
2022/03/08 01:42:11;;;;;;;20.92;10.32;;;;;;;;;;4952439;28;108775;-62
2022/03/08 01:44:39;;;;;;;21.73;10.30;;;;;;;;;;4970561;28;107481;-62
2022/03/08 01:47:06;;;;;;;22.92;10.60;;;;;;;;;;4975752;28;106432;-62
2022/03/08 01:49:32;;;;;;;18.75;9.77;;;;;;;;;;4951872;28;108442;-64
2022/03/08 01:51:59;;;;;;;21.35;10.55;;;;;;;;;;4946797;28;107812;-62
2022/03/08 01:54:25;;;;;;;22.30;10.52;;;;;;;;;;4968107;28;106348;-62
2022/03/08 01:56:51;;;;;;;20.88;10.20;;;;;;;;;;4969872;28;107761;-63
2022/03/08 01:59:18;;;;;;;21.08;10.68;;;;;;;;;;4967033;28;106252;-63
2022/03/08 02:01:44;;;;;;;22.52;10.27;;;;;;;;;;4972048;22;106823;-63
2022/03/08 02:04:12;;;;;;;22.80;10.52;;;;;;;;;;4910813;28;107652;-63
2022/03/08 02:06:38;;;;;;;19.85;10.07;;;;;;;;;;4928527;28;106216;-63
2022/03/08 02:09:04;;;;;;;21.45;9.80;;;;;;;;;;4924875;28;106718;-63
2022/03/08 02:11:31;;;;;;;19.45;10.00;;;;;;;;;;4927907;28;107417;-63
2022/03/08 02:13:57;;;;;;;22.48;9.77;;;;;;;;;;4926718;28;106412;-64
2022/03/08 02:16:24;;;;;;;21.52;10.20;;;;;;;;;;4928644;28;106702;-63
2022/03/08 02:18:50;;;;;;;20.30;9.38;;;;;;;;;;4932127;28;106362;-64
2022/03/08 02:21:16;;;;;;;21.90;10.45;;;;;;;;;;4926992;28;108387;-63
2022/03/08 02:23:43;;;;;;;24.42;10.48;;;;;;;;;;4926648;28;107821;-63
2022/03/08 02:26:09;;;;;;;22.20;9.32;;;;;;;;;;4929484;28;107013;-64
2022/03/08 02:28:36;;;;;;;19.90;9.90;;;;;;;;;;4912738;28;107244;-63
2022/03/08 02:31:02;;;;;;;18.83;9.32;;;;;;;;;;4915083;28;109583;-63
2022/03/08 02:33:29;;;;;;;19.10;9.35;;;;;;;;;;4930352;28;106399;-63
2022/03/08 02:35:55;;;;;;;19.67;9.75;;;;;;;;;;4933063;28;106117;-67
2022/03/08 02:38:22;;;;;;;16.75;8.23;;;;;;;;;;4931283;28;106637;-64
2022/03/08 02:40:49;;;;;;;16.73;8.43;;;;;;;;;;4937115;28;106741;-66
2022/03/08 02:43:16;;;;;;;14.63;7.53;;;;;;;;;;4931694;28;107686;-61
2022/03/08 02:45:43;;;;;;;14.10;7.47;;;;;;;;;;4932929;28;106636;-61
2022/03/08 02:48:10;;;;;;;15.57;7.88;;;;;;;;;;4928829;28;106685;-62
2022/03/08 02:50:36;;;;;;;14.50;7.25;;;;;;;;;;4932164;28;106329;-63
2022/03/08 02:53:03;;;;;;;16.33;8.25;;;;;;;;;;4921559;28;107121;-63
2022/03/08 02:55:30;;;;;;;17.98;7.35;;;;;;;;;;4931383;28;106999;-62
2022/03/08 02:57:57;;;;;;;17.45;8.70;;;;;;;;;;4924254;28;106871;-63
2022/03/08 03:00:24;;;;;;;17.85;8.13;;;;;;;;;;4929784;28;106280;-63
2022/03/08 03:02:51;;;;;;;17.20;8.65;;;;;;;;;;4933938;28;106727;-63
2022/03/08 03:05:18;;;;;;;16.58;8.40;;;;;;;;;;4927371;28;106415;-63
2022/03/08 03:07:44;;;;;;;18.45;8.23;;;;;;;;;;4927934;28;106825;-62
2022/03/08 03:10:11;;;;;;;19.50;8.30;;;;;;;;;;4930391;28;109083;-63
2022/03/08 03:12:38;;;;;;;15.75;8.38;;;;;;;;;;4930104;28;106062;-63
2022/03/08 03:15:05;;;;;;;17.67;7.50;;;;;;;;;;4931603;28;106485;-63
2022/03/08 03:17:32;;;;;;;14.98;7.93;;;;;;;;;;4930718;28;107655;-63
2022/03/08 03:19:58;;;;;;;16.05;8.52;;;;;;;;;;4929824;28;106007;-63
2022/03/08 03:22:25;;;;;;;15.30;8.35;;;;;;;;;;4929740;28;107152;-63
2022/03/08 03:24:51;;;;;;;14.32;7.75;;;;;;;;;;4933299;28;106730;-63
2022/03/08 03:27:18;;;;;;;23.00;9.13;;;;;;;;;;4930338;28;107180;-63
2022/03/08 03:29:44;;;;;;;16.40;8.35;;;;;;;;;;4930767;28;107657;-63
2022/03/08 03:32:10;;;;;;;14.13;7.68;;;;;;;;;;4931103;28;105507;-63
2022/03/08 03:34:37;;;;;;;22.52;7.93;;;;;;;;;;4931413;28;106906;-62
2022/03/08 03:37:03;;;;;;;19.05;8.07;;;;;;;;;;4928852;28;107452;-62
2022/03/08 03:39:30;;;;;;;17.75;8.88;;;;;;;;;;4920848;28;109096;-63
2022/03/08 03:41:56;;;;;;;17.92;8.90;;;;;;;;;;4930854;28;106781;-63
2022/03/08 03:44:23;;;;;;;15.75;8.80;;;;;;;;;;4934059;28;107027;-63
2022/03/08 03:46:49;;;;;;;16.33;8.70;;;;;;;;;;4931695;28;106364;-64
2022/03/08 03:49:15;;;;;;;15.60;8.48;;;;;;;;;;4930558;28;107622;-62
2022/03/08 03:51:42;;;;;;;15.27;8.52;;;;;;;;;;4929878;28;106822;-62
2022/03/08 03:54:08;;;;;;;17.17;8.88;;;;;;;;;;4927705;28;106984;-63
2022/03/08 03:56:35;;;;;;;17.55;8.35;;;;;;;;;;4928995;28;106871;-63
2022/03/08 03:59:02;;;;;;;17.15;8.38;;;;;;;;;;4930615;28;106979;-63
2022/03/08 04:01:28;;;;;;;19.33;9.40;;;;;;;;;;4929222;28;106726;-63
2022/03/08 04:03:55;;;;;;;18.10;9.40;;;;;;;;;;4929599;28;106918;-63
2022/03/08 04:06:21;;;;;;;19.25;9.13;;;;;;;;;;4932532;28;107060;-63
2022/03/08 04:08:47;;;;;;;17.95;9.32;;;;;;;;;;4930099;28;108775;-63
2022/03/08 04:11:14;;;;;;;19.10;9.07;;;;;;;;;;4929397;28;106161;-63
2022/03/08 04:13:40;;;;;;;22.83;10.15;;;;;;;;;;4930170;28;106716;-63
2022/03/08 04:16:07;;;;;;;18.98;8.90;;;;;;;;;;4926476;28;107011;-66
2022/03/08 04:18:33;;;;;;;18.88;9.27;;;;;;;;;;4931143;28;105741;-64
2022/03/08 04:21:00;;;;;;;20.08;9.18;;;;;;;;;;4929146;28;106650;-63
2022/03/08 04:23:26;;;;;;;19.10;9.85;;;;;;;;;;4929888;28;107380;-63
2022/03/08 04:25:52;;;;;;;20.67;9.85;;;;;;;;;;4929451;28;107204;-63
2022/03/08 04:28:19;;;;;;;17.85;9.00;;;;;;;;;;4933850;28;106299;-62
2022/03/08 04:30:45;;;;;;;20.83;9.13;;;;;;;;;;4930532;28;107519;-63
2022/03/08 04:33:11;;;;;;;22.17;9.50;;;;;;;;;;4929963;28;106186;-62
2022/03/08 04:35:38;;;;;;;21.17;9.73;;;;;;;;;;4923714;28;106242;-62
2022/03/08 04:38:04;;;;;;;17.83;9.23;;;;;;;;;;4929416;28;106654;-62
2022/03/08 04:40:31;;;;;;;19.45;8.55;;;;;;;;;;4928208;28;106778;-62
2022/03/08 04:42:57;;;;;;;18.52;8.75;;;;;;;;;;4929736;28;107662;-61
2022/03/08 04:45:23;;;;;;;17.55;8.60;;;;;;;;;;4929828;28;107521;-61
2022/03/08 04:47:50;;;;;;;18.92;9.05;;;;;;;;;;4931183;28;107099;-61
2022/03/08 04:50:16;;;;;;;17.60;9.20;;;;;;;;;;4931597;28;107707;-62
2022/03/08 04:52:44;;;;;;;17.17;9.07;;;;;;;;;;4928485;28;108025;-61
2022/03/08 04:55:11;;;;;;;23.92;9.48;;;;;;;;;;4911889;28;109028;-61
2022/03/08 04:57:38;;;;;;;16.83;8.18;;;;;;;;;;4926284;28;105926;-63
2022/03/08 05:00:06;;;;;;;16.13;8.60;;;;;;;;;;4928831;28;108994;-62
2022/03/08 05:02:33;;;;;;;17.05;8.30;;;;;;;;;;4926290;28;108744;-62
2022/03/08 05:04:59;;;;;;;15.77;7.57;;;;;;;;;;4912989;28;106286;-62
2022/03/08 05:07:26;;;;;;;15.27;7.82;;;;;;;;;;4929246;28;106824;-62
2022/03/08 05:09:52;;;;;;;11.60;6.88;;;;;;;;;;4928645;28;106359;-62
2022/03/08 05:12:18;;;;;;;15.52;7.20;;;;;;;;;;4932588;28;106454;-62
2022/03/08 05:14:45;;;;;;;13.27;7.13;;;;;;;;;;4928768;28;107412;-61
2022/03/08 05:17:11;;;;;;;14.83;6.67;;;;;;;;;;4924903;28;106503;-62
2022/03/08 05:19:37;;;;;;;12.48;7.28;;;;;;;;;;4922118;28;106659;-62
2022/03/08 05:22:04;;;;;;;16.38;7.47;;;;;;;;;;4911501;28;107147;-62
2022/03/08 05:24:30;;;;;;;14.65;7.30;;;;;;;;;;4927529;28;106177;-62
2022/03/08 05:26:57;;;;;;;13.47;6.93;;;;;;;;;;4929087;28;106717;-63
2022/03/08 05:29:23;;;;;;;15.67;7.03;;;;;;;;;;4922862;28;107501;-62
2022/03/08 05:31:49;;;;;;;14.55;7.18;;;;;;;;;;4923607;28;106239;-62
2022/03/08 05:34:16;;;;;;;11.95;6.78;;;;;;;;;;4929189;28;106674;-62
2022/03/08 05:36:42;;;;;;;13.40;7.03;;;;;;;;;;4928574;28;106002;-62
2022/03/08 05:39:09;;;;;;;13.65;6.45;;;;;;;;;;4927179;28;105976;-63
2022/03/08 05:41:35;;;;;;;13.70;7.03;;;;;;;;;;4925710;28;107227;-62
2022/03/08 05:44:01;;;;;;;13.50;6.70;;;;;;;;;;4927264;28;106542;-62
2022/03/08 05:46:28;;;;;;;16.35;6.88;;;;;;;;;;4929402;28;106734;-62
2022/03/08 05:48:54;;;;;;;15.65;6.53;;;;;;;;;;4928876;28;107317;-62
2022/03/08 05:51:21;;;;;;;11.43;6.67;;;;;;;;;;4925174;28;106014;-63
2022/03/08 05:53:47;;;;;;;16.10;6.40;;;;;;;;;;4932395;28;107454;-62
2022/03/08 05:56:13;;;;;;;14.43;7.30;;;;;;;;;;4929015;28;106930;-62
2022/03/08 05:58:40;;;;;;;15.32;6.68;;;;;;;;;;4929523;28;108157;-62
2022/03/08 06:01:06;;;;;;;12.52;6.63;;;;;;;;;;4926804;28;106883;-62
2022/03/08 06:03:33;;;;;;;12.38;6.95;;;;;;;;;;4926911;28;108083;-62
2022/03/08 06:05:59;;;;;;;11.85;6.57;;;;;;;;;;4915609;28;106593;-62
2022/03/08 06:08:26;;;;;;;13.80;6.70;;;;;;;;;;4934359;28;106844;-62
2022/03/08 06:10:52;;;;;;;13.10;6.68;;;;;;;;;;4933510;28;106701;-64
2022/03/08 06:13:19;;;;;;;12.35;6.20;;;;;;;;;;4928158;28;106871;-61
2022/03/08 06:15:45;;;;;;;16.42;6.97;;;;;;;;;;4932203;28;108450;-63
2022/03/08 06:18:11;;;;;;;14.53;6.67;;;;;;;;;;4903670;28;106892;-62
2022/03/08 06:20:38;;;;;;;16.45;6.97;;;;;;;;;;4927421;28;107987;-62
2022/03/08 06:23:04;;;;;;;12.48;6.70;;;;;;;;;;4927828;28;105935;-62
2022/03/08 06:25:30;;;;;;;12.63;6.57;;;;;;;;;;4928359;28;106626;-61
2022/03/08 06:27:57;;;;;;;15.20;6.72;;;;;;;;;;4927381;28;107750;-62
2022/03/08 06:30:23;;;;;;;19.33;7.50;;;;;;;;;;4926191;28;106572;-62
2022/03/08 06:32:49;;;;;;;17.98;6.90;;;;;;;;;;4929089;28;107079;-62
2022/03/08 06:35:18;;;;;;;15.68;6.32;;;;;;;;;;4928516;28;107399;-63
2022/03/08 06:37:44;;;;;;;13.87;6.77;;;;;;;;;;4930643;28;105958;-62
2022/03/08 06:40:10;;;;;;;14.43;6.90;;;;;;;;;;4927583;28;107090;-62
2022/03/08 06:42:37;;;;;;;14.00;7.18;;;;;;;;;;4928583;28;106155;-62
2022/03/08 06:45:05;;;;;;;11.18;6.38;;;;;;;;;;4928580;28;107060;-62
2022/03/08 06:47:31;;;;;;;14.20;6.63;;;;;;;;;;4928044;28;106418;-62
2022/03/08 06:49:58;;;;;;;12.73;7.53;;;;;;;;;;4926790;28;105719;-62
2022/03/08 06:52:24;;;;;;;19.40;6.90;;;;;;;;;;4926375;28;106441;-62
2022/03/08 06:54:50;;;;;;;12.38;6.65;;;;;;;;;;4923832;28;106492;-65
2022/03/08 06:57:17;;;;;;;12.63;6.15;;;;;;;;;;4928683;28;106632;-62
2022/03/08 06:59:43;;;;;;;11.52;6.75;;;;;;;;;;4929816;28;107523;-62
2022/03/08 07:02:10;;;;;;;13.23;6.75;;;;;;;;;;4927048;28;106136;-64
2022/03/08 07:04:36;;;;;;;13.20;6.55;;;;;;;;;;4928565;28;107201;-62
2022/03/08 07:07:02;;;;;;;15.95;7.38;;;;;;;;;;4926184;28;107458;-62
2022/03/08 07:09:29;;;;;;;12.05;6.60;;;;;;;;;;4925535;28;105677;-62
2022/03/08 07:11:56;;;;;;;12.93;7.13;;;;;;;;;;4921951;28;108786;-64
2022/03/08 07:14:22;;;;;;;14.73;6.82;;;;;;;;;;4909901;28;109526;-63
2022/03/08 07:16:49;;;;;;;13.80;7.03;;;;;;;;;;4928634;28;106844;-62
2022/03/08 07:19:15;;;;;;;11.38;6.65;;;;;;;;;;4928710;28;106960;-63
2022/03/08 07:21:42;;;;;;;12.35;6.57;;;;;;;;;;4932608;28;106230;-62
2022/03/08 07:24:09;;;;;;;12.95;6.03;;;;;;;;;;4919103;28;107689;-62
2022/03/08 07:26:35;;;;;;;18.60;6.68;;;;;;;;;;4922261;28;107518;-63
2022/03/08 07:29:02;;;;;;;14.73;7.30;;;;;;;;;;4930318;28;107538;-62
2022/03/08 07:31:28;;;;;;;14.25;7.05;;;;;;;;;;4930854;28;106320;-62
2022/03/08 07:33:55;;;;;;;13.02;7.30;;;;;;;;;;4930628;28;107392;-63
2022/03/08 07:36:22;;;;;;;12.45;7.32;;;;;;;;;;4929907;28;106251;-63
2022/03/08 07:38:49;;;;;;;13.10;6.55;;;;;;;;;;4931746;28;107718;-62
2022/03/08 07:41:15;;;;;;;11.73;6.88;;;;;;;;;;4927896;28;107277;-64
2022/03/08 07:43:41;;;;;;;15.40;6.80;;;;;;;;;;4930779;28;106455;-62
2022/03/08 07:46:09;;;;;;;12.57;6.88;;;;;;;;;;4927996;28;107547;-62
2022/03/08 07:48:36;;;;;;;14.85;6.97;;;;;;;;;;4930571;28;106499;-62
2022/03/08 07:51:03;;;;;;;17.38;6.88;;;;;;;;;;4926882;28;106575;-64
2022/03/08 07:53:30;;;;;;;14.20;6.97;;;;;;;;;;4921111;28;109015;-63
2022/03/08 07:55:56;;;;;;;11.25;7.00;;;;;;;;;;4921776;28;107241;-63
2022/03/08 07:58:23;;;;;;;11.57;6.80;;;;;;;;;;4923727;28;107061;-64
2022/03/08 08:00:50;;;;;;;13.35;6.20;;;;;;;;;;4919947;28;107218;-64
2022/03/08 08:03:16;;;;;;;12.23;6.50;;;;;;;;;;4930077;28;106092;-63
2022/03/08 08:05:43;;;;;;;10.48;6.45;;;;;;;;;;4928501;28;107454;-63
2022/03/08 08:08:09;;;;;;;11.63;6.80;;;;;;;;;;4926464;28;107606;-63
2022/03/08 08:10:36;;;;;;;12.25;6.30;;;;;;;;;;4925576;28;106800;-62
2022/03/08 08:13:03;;;;;;;11.48;6.30;;;;;;;;;;4929134;28;106850;-63
2022/03/08 08:15:29;;;;;;;21.27;6.80;;;;;;;;;;4927317;28;106177;-64
2022/03/08 08:17:56;;;;;;;11.57;6.93;;;;;;;;;;4930633;28;105985;-64
2022/03/08 08:20:22;;;;;;;11.10;6.45;;;;;;;;;;4927789;28;108796;-66
2022/03/08 08:22:48;;;;;;;11.35;5.75;;;;;;;;;;4937757;28;106484;-64
2022/03/08 08:25:15;;;;;;;14.85;6.60;;;;;;;;;;4935679;28;106358;-64
2022/03/08 08:27:42;;;;;;;11.63;6.03;;;;;;;;;;4931283;28;107206;-63
2022/03/08 08:30:12;;;;;;;12.55;6.30;;;;;;;;;;4932707;28;106046;-64
2022/03/08 08:32:39;;;;;;;11.77;6.03;;;;;;;;;;4929213;28;107486;-65
2022/03/08 08:35:06;;;;;;;14.05;6.55;;;;;;;;;;4927796;28;106892;-63
2022/03/08 08:37:32;;;;;;;13.25;6.20;;;;;;;;;;4927969;28;107264;-63
2022/03/08 08:39:59;;;;;;;10.60;5.97;;;;;;;;;;4926117;28;107358;-64
2022/03/08 08:42:25;;;;;;;12.07;6.30;;;;;;;;;;4928433;28;106104;-63
2022/03/08 08:44:52;;;;;;;11.48;6.10;;;;;;;;;;4932399;28;107060;-64
2022/03/08 08:47:18;;;;;;;13.77;6.22;;;;;;;;;;4931568;28;108137;-64
2022/03/08 08:49:45;;;;;;;9.15;5.70;;;;;;;;;;4926439;28;106432;-64
2022/03/08 08:52:11;;;;;;;11.85;6.22;;;;;;;;;;4927599;28;107522;-65
2022/03/08 08:54:37;;;;;;;12.95;6.93;;;;;;;;;;4927712;28;106459;-64
2022/03/08 08:57:04;;;;;;;12.65;6.38;;;;;;;;;;4926933;28;107515;-65
2022/03/08 08:59:30;;;;;;;12.60;6.63;;;;;;;;;;4929565;28;106694;-65
2022/03/08 09:01:57;;;;;;;11.02;6.03;;;;;;;;;;4928788;28;106624;-65
2022/03/08 09:04:24;;;;;;;11.98;6.68;;;;;;;;;;4928939;28;105986;-67
2022/03/08 09:06:50;;;;;;;10.02;6.43;;;;;;;;;;4891653;28;108995;-65
2022/03/08 09:09:16;;;;;;;13.48;6.45;;;;;;;;;;4930053;28;106273;-64
2022/03/08 09:11:45;;;;;;;11.95;5.80;;;;;;;;;;4922303;28;107587;-64
2022/03/08 09:14:11;;;;;;;11.25;6.40;;;;;;;;;;4926309;28;106333;-65
2022/03/08 09:16:38;;;;;;;11.10;5.53;;;;;;;;;;4926608;28;109418;-64
2022/03/08 09:19:04;;;;;;;10.18;5.22;;;;;;;;;;4927405;28;107499;-64
2022/03/08 09:21:31;;;;;;;15.50;6.07;;;;;;;;;;4927866;28;106097;-63
2022/03/08 09:23:57;;;;;;;11.10;5.78;;;;;;;;;;4926073;28;106711;-64
2022/03/08 09:26:23;;;;;;;11.73;6.00;;;;;;;;;;4924535;28;107630;-63
2022/03/08 09:28:50;;;;;;;11.32;5.75;;;;;;;;;;4923029;28;107408;-66
2022/03/08 09:31:16;;;;;;;10.77;5.80;;;;;;;;;;4928206;28;108103;-64
2022/03/08 09:33:43;;;;;;;9.15;5.38;;;;;;;;;;4929945;28;106356;-65
2022/03/08 09:36:09;;;;;;;10.90;5.68;;;;;;;;;;4925124;28;105990;-66
2022/03/08 09:38:37;;;;;;;13.13;5.93;;;;;;;;;;4927816;28;107249;-66
2022/03/08 09:41:03;;;;;;;11.38;5.80;;;;;;;;;;4925815;28;106294;-65
2022/03/08 09:43:30;;;;;;;12.13;5.90;;;;;;;;;;4921872;28;105918;-63
2022/03/08 09:45:56;;;;;;;8.52;5.20;;;;;;;;;;4913417;28;107422;-65
2022/03/08 09:48:23;;;;;;;17.60;6.30;;;;;;;;;;4923746;28;106512;-65
2022/03/08 09:50:49;;;;;;;13.40;5.65;;;;;;;;;;4928781;28;107424;-65
2022/03/08 09:53:17;;;;;;;12.27;5.35;;;;;;;;;;4924232;28;105889;-64
2022/03/08 09:55:43;;;;;;;10.77;5.30;;;;;;;;;;4923006;28;107110;-65
2022/03/08 09:58:10;;;;;;;12.15;6.43;;;;;;;;;;4924780;28;107728;-65
2022/03/08 10:00:36;;;;;;;12.57;6.03;;;;;;;;;;4933355;28;106389;-66
2022/03/08 10:03:07;;;;;;;8.75;5.38;;;;;;;;;;4927995;28;107115;-65
2022/03/08 10:05:39;;;;;;;10.98;5.50;;;;;;;;;;4927968;28;107416;-65
2022/03/08 10:08:13;;;;;;;9.75;5.28;;;;;;;;;;4937170;28;107002;-65
2022/03/08 10:10:48;;;;;;;9.68;5.30;;;;;;;;;;4922212;28;108153;-65
2022/03/08 10:13:21;;;;;;;;;;;;;;;;;;4927015;28;107938;-65
2022/03/08 10:16:03;;;;;;;13.32;5.15;;;;;;;;;;4924389;28;107614;-65
2022/03/08 10:18:33;;;;;;;14.10;4.90;;;;;;;;;;4921783;28;106487;-64
2022/03/08 10:21:00;;;;;;;13.75;5.35;;;;;;;;;;4927531;28;107368;-64
2022/03/08 10:23:27;;;;;;;8.65;5.03;;;;;;;;;;4924795;28;108170;-65
2022/03/08 10:26:02;;;;;;;8.95;4.40;;;;;;;;;;4923009;28;107695;-65
2022/03/08 10:28:28;;;;;;;10.40;5.10;;;;;;;;;;4927633;28;107496;-65
2022/03/08 10:30:54;;;;;;;14.35;5.40;;;;;;;;;;4923721;28;106243;-65
2022/03/08 10:33:32;;;;;;;8.88;5.10;;;;;;;;;;4922383;28;107306;-64
2022/03/08 10:35:58;;;;;;;8.50;5.28;;;;;;;;;;4911546;28;106193;-65
2022/03/08 10:38:25;;;;;;;8.52;5.47;;;;;;;;;;4928600;28;106823;-65
2022/03/08 10:40:51;;;;;;;11.40;4.90;;;;;;;;;;4926658;28;106934;-65
2022/03/08 10:43:17;;;;;;;7.25;4.68;;;;;;;;;;4929157;28;106072;-64
2022/03/08 10:45:48;;;;;;;9.98;5.50;;;;;;;;;;4924865;28;107334;-65
2022/03/08 10:48:18;;;;;;;9.40;5.40;;;;;;;;;;4922117;28;106238;-66
2022/03/08 10:50:45;;;;;;;13.02;5.60;;;;;;;;;;4924724;28;106960;-65
2022/03/08 10:53:12;;;;;;;10.25;5.00;;;;;;;;;;4924855;28;107501;-65
2022/03/08 10:55:43;;;;;;;9.20;5.07;;;;;;;;;;4923574;28;108693;-67
2022/03/08 10:58:12;;;;;;;6.88;4.95;;;;;;;;;;4926889;28;106886;-65
2022/03/08 11:00:39;;;;;;;11.85;4.95;;;;;;;;;;4924620;28;106320;-66
2022/03/08 11:03:07;;;;;;;8.65;5.07;;;;;;;;;;4930267;28;106156;-65
2022/03/08 11:05:36;;;;;;;7.88;4.68;;;;;;;;;;4923790;28;108474;-65
2022/03/08 11:08:03;;;;;;;9.13;4.53;;;;;;;;;;4927651;28;109556;-65
2022/03/08 11:10:30;;;;;;;9.32;4.28;;;;;;;;;;4924830;28;107839;-65
2022/03/08 11:12:57;;;;;;;5.65;4.00;;;;;;;;;;4917084;28;106850;-68
2022/03/08 11:15:24;;;;;;;7.90;4.70;;;;;;;;;;4928848;28;107839;-65
2022/03/08 11:17:53;;;;;;;9.65;4.43;;;;;;;;;;4932006;28;107012;-67
2022/03/08 11:20:20;;;;;;;7.45;4.22;;;;;;;;;;4932240;28;107312;-67
2022/03/08 11:22:47;;;;;;;8.52;4.18;;;;;;;;;;4926712;28;107606;-66
2022/03/08 11:25:18;;;;;;;7.00;3.97;;;;;;;;;;4929233;28;108574;-66
2022/03/08 11:28:04;;;;;;;14.57;4.10;;;;;;;;;;4923371;28;107668;-66
2022/03/08 11:30:35;;;;;;;7.63;4.20;;;;;;;;;;4928496;28;107406;-66
2022/03/08 11:33:11;;;;;;;6.47;3.60;;;;;;;;;;4929207;28;107244;-68
2022/03/08 11:35:53;;;;;;;8.13;4.18;;;;;;;;;;4911362;28;107571;-65
2022/03/08 11:38:19;;;;;;;8.90;4.20;;;;;;;;;;4930668;28;107529;-67
2022/03/08 11:40:47;;;;;;;9.50;4.38;;;;;;;;;;4923626;28;109021;-65
2022/03/08 11:43:13;;;;;;;8.40;4.20;;;;;;;;;;4931191;28;106239;-65
2022/03/08 11:45:40;;;;;;;8.80;4.47;;;;;;;;;;4904704;28;107785;-71
2022/03/08 11:48:09;;;;;;;6.80;4.47;;;;;;;;;;4928319;28;106427;-66
2022/03/08 11:50:36;;;;;;;6.07;4.30;;;;;;;;;;4928814;28;109716;-67
2022/03/08 11:53:06;;;;;;;6.97;4.70;;;;;;;;;;4924477;28;107416;-67
2022/03/08 11:55:34;;;;;;;9.57;4.80;;;;;;;;;;4930555;28;107395;-67
2022/03/08 11:58:02;;;;;;;10.88;4.70;;;;;;;;;;4930234;28;106245;-67
2022/03/08 12:00:34;;;;;;;7.97;4.43;;;;;;;;;;4926027;28;108467;-66
2022/03/08 12:03:04;;;;;;;8.85;4.25;;;;;;;;;;4930392;28;106098;-66
2022/03/08 12:05:37;;;;;;;9.52;4.90;;;;;;;;;;4928107;28;107432;-67
2022/03/08 12:08:24;;;;;;;6.57;4.53;;;;;;;;;;4923615;28;106111;-67
2022/03/08 12:11:00;;;;;;;11.82;4.78;;;;;;;;;;4919240;28;107233;-70
2022/03/08 12:13:38;;;;;;;7.18;4.47;;;;;;;;;;4921409;28;106866;-67
2022/03/08 12:16:11;;;;;;;9.68;4.30;;;;;;;;;;4929501;28;106590;-67
2022/03/08 12:18:38;;;;;;;9.10;4.40;;;;;;;;;;4930565;28;106589;-67
2022/03/08 12:21:14;;;;;;;10.30;4.68;;;;;;;;;;4926634;28;109214;-67
2022/03/08 12:23:50;;;;;;;9.07;4.07;;;;;;;;;;4929781;28;106265;-66
2022/03/08 12:26:27;;;;;;;6.53;4.10;;;;;;;;;;4932199;28;107281;-66
2022/03/08 12:29:13;;;;;;;11.50;4.43;;;;;;;;;;4929271;28;106390;-66
2022/03/08 12:31:58;;;;;;;8.15;4.53;;;;;;;;;;4924754;28;108239;-66
2022/03/08 12:34:47;;;;;;;8.27;4.40;;;;;;;;;;4918819;28;107613;-66
2022/03/08 12:37:50;;;;;;;7.38;4.45;;;;;;;;;;4928335;28;107372;-67
2022/03/08 12:40:19;;;;;;;10.65;4.68;;;;;;;;;;4921081;28;107428;-65
2022/03/08 12:42:45;;;;;;;;;;;;;;;;;;4928217;28;108329;-64
2022/03/08 12:45:17;;;;;;;7.50;4.30;;;;;;;;;;4929509;28;108970;-66
2022/03/08 12:47:45;;;;;;;8.32;4.72;;;;;;;;;;4929372;28;107006;-66
2022/03/08 12:50:15;;;;;;;12.68;4.18;;;;;;;;;;4931246;28;107372;-67
2022/03/08 12:52:44;;;;;;;10.65;4.63;;;;;;;;;;4929361;28;106972;-66
2022/03/08 12:55:13;;;;;;;13.63;4.47;;;;;;;;;;4928744;28;107812;-66
2022/03/08 12:57:47;;;;;;;7.15;4.82;;;;;;;;;;4927330;28;106690;-66
2022/03/08 13:00:26;;;;;;;13.27;4.50;;;;;;;;;;4926470;28;108434;-67
2022/03/08 13:02:53;;;;;;;8.18;5.05;;;;;;;;;;4928632;28;106980;-66
2022/03/08 13:05:24;;;;;;;8.60;4.85;;;;;;;;;;4927178;28;106795;-66
2022/03/08 13:07:54;;;;;;;7.82;4.40;;;;;;;;;;4929307;28;106992;-66
2022/03/08 13:10:21;;;;;;;9.93;4.80;;;;;;;;;;4918347;28;107938;-66
2022/03/08 13:12:55;;;;;;;9.32;4.75;;;;;;;;;;4932131;28;106717;-66
2022/03/08 13:15:23;;;;;;;11.30;5.07;;;;;;;;;;4903209;28;109687;-66
2022/03/08 13:17:51;;;;;;;8.33;4.37;;;;;;;;;;4928401;28;107748;-66
2022/03/08 13:20:28;;;;;;;7.18;4.70;;;;;;;;;;4926555;28;107278;-66
2022/03/08 13:22:55;;;;;;;12.15;5.20;;;;;;;;;;4929009;28;107978;-66
2022/03/08 13:25:23;;;;;;;8.93;5.23;;;;;;;;;;4928928;28;106803;-66
2022/03/08 13:27:53;;;;;;;8.43;4.65;;;;;;;;;;4917520;28;106994;-66
2022/03/08 13:30:28;;;;;;;10.20;4.68;;;;;;;;;;4927169;28;108524;-66
2022/03/08 13:33:15;;;;;;;9.35;4.95;;;;;;;;;;4916495;28;108046;-70
2022/03/08 13:35:46;;;;;;;6.63;4.90;;;;;;;;;;4930238;28;107785;-66
2022/03/08 13:38:13;;;;;;;13.48;5.22;;;;;;;;;;4917970;28;106951;-66
2022/03/08 13:40:40;;;;;;;7.18;4.70;;;;;;;;;;4926903;28;108584;-66
2022/03/08 13:43:07;;;;;;;9.18;4.45;;;;;;;;;;4908720;28;108758;-66
2022/03/08 13:45:54;;;;;;;9.35;4.80;;;;;;;;;;4927686;28;107306;-66
2022/03/08 13:48:25;;;;;;;7.20;5.00;;;;;;;;;;4928274;28;107747;-66
2022/03/08 13:50:52;;;;;;;5.95;4.75;;;;;;;;;;4925435;28;108283;-66
2022/03/08 13:53:19;;;;;;;6.40;4.72;;;;;;;;;;4927240;28;107288;-66
2022/03/08 13:55:45;;;;;;;7.97;4.78;;;;;;;;;;4926012;28;107625;-66
2022/03/08 13:58:13;;;;;;;10.07;4.97;;;;;;;;;;4928871;28;108174;-66
2022/03/08 14:00:42;;;;;;;9.07;4.80;;;;;;;;;;4927219;28;107601;-66
2022/03/08 14:03:09;;;;;;;9.82;5.07;;;;;;;;;;4925950;28;108963;-67
2022/03/08 14:05:48;;;;;;;9.63;4.70;;;;;;;;;;4925675;28;107855;-67
2022/03/08 14:08:34;;;;;;;9.95;4.80;;;;;;;;;;4918251;28;108635;-66
2022/03/08 14:11:03;;;;;;;10.23;5.15;;;;;;;;;;4913073;28;109105;-66
2022/03/08 14:13:32;;;;;;;10.65;4.50;;;;;;;;;;4923298;28;109590;-66
2022/03/08 14:16:05;;;;;;;9.20;4.60;;;;;;;;;;4908498;28;107836;-67
2022/03/08 14:18:33;;;;;;;7.05;4.55;;;;;;;;;;4929574;28;107952;-67
2022/03/08 14:21:01;;;;;;;11.10;5.05;;;;;;;;;;4925423;28;109005;-65
2022/03/08 14:23:39;;;;;;;9.00;4.95;;;;;;;;;;4924939;28;108252;-64